sensor_id;sensor_type;location;lat;lon;timestamp;temperature;humidity
9482;DHT22;4779;48.062;11.672;2023-07-22T00:00:29;16.60;99.90
9482;DHT22;4779;48.062;11.672;2023-07-22T00:02:58;16.60;99.90
9482;DHT22;4779;48.062;11.672;2023-07-22T00:05:25;16.60;99.90
9482;DHT22;4779;48.062;11.672;2023-07-22T00:07:52;16.50;99.90
9482;DHT22;4779;48.062;11.672;2023-07-22T00:10:19;16.50;99.90
9482;DHT22;4779;48.062;11.672;2023-07-22T00:12:46;16.40;99.90
9482;DHT22;4779;48.062;11.672;2023-07-22T00:15:13;16.40;99.90
9482;DHT22;4779;48.062;11.672;2023-07-22T00:17:41;16.40;99.90
9482;DHT22;4779;48.062;11.672;2023-07-22T00:20:10;16.40;99.90
9482;DHT22;4779;48.062;11.672;2023-07-22T00:22:37;16.40;99.90
9482;DHT22;4779;48.062;11.672;2023-07-22T00:25:06;16.30;99.90
9482;DHT22;4779;48.062;11.672;2023-07-22T00:27:36;16.30;99.90
9482;DHT22;4779;48.062;11.672;2023-07-22T00:30:04;16.30;99.90
9482;DHT22;4779;48.062;11.672;2023-07-22T00:32:31;16.30;99.90
9482;DHT22;4779;48.062;11.672;2023-07-22T00:34:58;16.20;99.90
9482;DHT22;4779;48.062;11.672;2023-07-22T00:37:27;16.30;99.90
9482;DHT22;4779;48.062;11.672;2023-07-22T00:39:54;16.30;99.90
9482;DHT22;4779;48.062;11.672;2023-07-22T00:42:21;16.30;99.90
9482;DHT22;4779;48.062;11.672;2023-07-22T00:44:48;16.30;99.90
9482;DHT22;4779;48.062;11.672;2023-07-22T00:47:17;16.20;99.90
9482;DHT22;4779;48.062;11.672;2023-07-22T00:49:47;16.20;99.90
9482;DHT22;4779;48.062;11.672;2023-07-22T00:52:14;16.20;99.90
9482;DHT22;4779;48.062;11.672;2023-07-22T00:54:43;16.10;99.90
9482;DHT22;4779;48.062;11.672;2023-07-22T00:57:11;16.10;99.90
9482;DHT22;4779;48.062;11.672;2023-07-22T00:59:39;16.10;99.90
9482;DHT22;4779;48.062;11.672;2023-07-22T01:02:09;16.10;99.90
9482;DHT22;4779;48.062;11.672;2023-07-22T01:04:37;16.10;99.90
9482;DHT22;4779;48.062;11.672;2023-07-22T01:07:05;16.10;99.90
9482;DHT22;4779;48.062;11.672;2023-07-22T01:09:37;16.00;99.90
9482;DHT22;4779;48.062;11.672;2023-07-22T01:12:06;16.00;99.90
9482;DHT22;4779;48.062;11.672;2023-07-22T01:14:34;16.00;99.90
9482;DHT22;4779;48.062;11.672;2023-07-22T01:17:02;16.10;99.90
9482;DHT22;4779;48.062;11.672;2023-07-22T01:19:30;16.00;99.90
9482;DHT22;4779;48.062;11.672;2023-07-22T01:22:00;16.00;99.90
9482;DHT22;4779;48.062;11.672;2023-07-22T01:24:29;16.00;99.90
9482;DHT22;4779;48.062;11.672;2023-07-22T01:26:56;16.00;99.90
9482;DHT22;4779;48.062;11.672;2023-07-22T01:29:26;16.00;99.90
9482;DHT22;4779;48.062;11.672;2023-07-22T01:31:54;16.00;99.90
9482;DHT22;4779;48.062;11.672;2023-07-22T01:34:22;16.00;99.90
9482;DHT22;4779;48.062;11.672;2023-07-22T01:36:50;15.90;99.90
9482;DHT22;4779;48.062;11.672;2023-07-22T01:39:18;16.00;99.90
9482;DHT22;4779;48.062;11.672;2023-07-22T01:41:46;16.00;99.90
9482;DHT22;4779;48.062;11.672;2023-07-22T01:44:13;15.90;99.90
9482;DHT22;4779;48.062;11.672;2023-07-22T01:46:40;15.90;99.90
9482;DHT22;4779;48.062;11.672;2023-07-22T01:49:11;15.90;99.90
9482;DHT22;4779;48.062;11.672;2023-07-22T01:51:39;15.90;99.90
9482;DHT22;4779;48.062;11.672;2023-07-22T01:54:07;15.90;99.90
9482;DHT22;4779;48.062;11.672;2023-07-22T01:56:34;15.90;99.90
9482;DHT22;4779;48.062;11.672;2023-07-22T01:59:03;15.90;99.90
9482;DHT22;4779;48.062;11.672;2023-07-22T02:01:31;15.90;99.90
9482;DHT22;4779;48.062;11.672;2023-07-22T02:03:58;16.00;99.90
9482;DHT22;4779;48.062;11.672;2023-07-22T02:06:26;16.00;99.90
9482;DHT22;4779;48.062;11.672;2023-07-22T02:08:54;15.90;99.90
9482;DHT22;4779;48.062;11.672;2023-07-22T02:11:21;16.00;99.90
9482;DHT22;4779;48.062;11.672;2023-07-22T02:13:48;15.90;99.90
9482;DHT22;4779;48.062;11.672;2023-07-22T02:16:17;15.90;99.90
9482;DHT22;4779;48.062;11.672;2023-07-22T02:18:44;15.90;99.90
9482;DHT22;4779;48.062;11.672;2023-07-22T02:21:11;15.90;99.90
9482;DHT22;4779;48.062;11.672;2023-07-22T02:23:39;15.90;99.90
9482;DHT22;4779;48.062;11.672;2023-07-22T02:26:08;15.90;99.90
9482;DHT22;4779;48.062;11.672;2023-07-22T02:28:35;15.90;99.90
9482;DHT22;4779;48.062;11.672;2023-07-22T02:31:03;15.90;99.90
9482;DHT22;4779;48.062;11.672;2023-07-22T02:33:34;15.90;99.90
9482;DHT22;4779;48.062;11.672;2023-07-22T02:36:01;15.90;99.90
9482;DHT22;4779;48.062;11.672;2023-07-22T02:38:28;15.90;99.90
9482;DHT22;4779;48.062;11.672;2023-07-22T02:40:59;15.80;99.90
9482;DHT22;4779;48.062;11.672;2023-07-22T02:43:27;15.80;99.90
9482;DHT22;4779;48.062;11.672;2023-07-22T02:45:55;15.80;99.90
9482;DHT22;4779;48.062;11.672;2023-07-22T02:48:22;15.90;99.90
9482;DHT22;4779;48.062;11.672;2023-07-22T02:50:50;15.80;99.90
9482;DHT22;4779;48.062;11.672;2023-07-22T02:53:17;15.80;99.90
9482;DHT22;4779;48.062;11.672;2023-07-22T02:55:44;15.80;99.90
9482;DHT22;4779;48.062;11.672;2023-07-22T02:58:13;15.80;99.90
9482;DHT22;4779;48.062;11.672;2023-07-22T03:00:40;15.80;99.90
9482;DHT22;4779;48.062;11.672;2023-07-22T03:03:08;15.80;99.90
9482;DHT22;4779;48.062;11.672;2023-07-22T03:05:35;15.70;99.90
9482;DHT22;4779;48.062;11.672;2023-07-22T03:08:04;15.80;99.90
9482;DHT22;4779;48.062;11.672;2023-07-22T03:10:32;15.60;99.90
9482;DHT22;4779;48.062;11.672;2023-07-22T03:12:59;15.60;99.90
9482;DHT22;4779;48.062;11.672;2023-07-22T03:15:29;15.60;99.90
9482;DHT22;4779;48.062;11.672;2023-07-22T03:17:56;15.60;99.90
9482;DHT22;4779;48.062;11.672;2023-07-22T03:20:24;15.60;99.90
9482;DHT22;4779;48.062;11.672;2023-07-22T03:22:52;15.50;99.90
9482;DHT22;4779;48.062;11.672;2023-07-22T03:25:24;15.50;99.90
9482;DHT22;4779;48.062;11.672;2023-07-22T03:27:51;15.50;99.90
9482;DHT22;4779;48.062;11.672;2023-07-22T03:30:21;15.50;99.90
9482;DHT22;4779;48.062;11.672;2023-07-22T03:32:49;15.40;99.90
9482;DHT22;4779;48.062;11.672;2023-07-22T03:35:17;15.50;99.90
9482;DHT22;4779;48.062;11.672;2023-07-22T03:37:44;15.40;99.90
9482;DHT22;4779;48.062;11.672;2023-07-22T03:40:11;15.40;99.90
9482;DHT22;4779;48.062;11.672;2023-07-22T03:42:45;15.40;99.90
9482;DHT22;4779;48.062;11.672;2023-07-22T03:45:12;15.40;99.90
9482;DHT22;4779;48.062;11.672;2023-07-22T03:47:39;15.40;99.90
9482;DHT22;4779;48.062;11.672;2023-07-22T03:50:07;15.40;99.90
9482;DHT22;4779;48.062;11.672;2023-07-22T03:52:34;15.40;99.90
9482;DHT22;4779;48.062;11.672;2023-07-22T03:55:01;15.40;99.90
9482;DHT22;4779;48.062;11.672;2023-07-22T03:57:29;15.40;99.90
9482;DHT22;4779;48.062;11.672;2023-07-22T03:59:57;15.40;99.90
9482;DHT22;4779;48.062;11.672;2023-07-22T04:02:25;15.40;99.90
9482;DHT22;4779;48.062;11.672;2023-07-22T04:04:53;15.40;99.90
9482;DHT22;4779;48.062;11.672;2023-07-22T04:07:20;15.40;99.90
9482;DHT22;4779;48.062;11.672;2023-07-22T04:09:48;15.40;99.90
9482;DHT22;4779;48.062;11.672;2023-07-22T04:12:15;15.40;99.90
9482;DHT22;4779;48.062;11.672;2023-07-22T04:14:42;15.40;99.90
9482;DHT22;4779;48.062;11.672;2023-07-22T04:17:10;15.40;99.90
9482;DHT22;4779;48.062;11.672;2023-07-22T04:19:37;15.50;99.90
9482;DHT22;4779;48.062;11.672;2023-07-22T04:22:05;15.50;99.90
9482;DHT22;4779;48.062;11.672;2023-07-22T04:24:33;15.50;99.90
9482;DHT22;4779;48.062;11.672;2023-07-22T04:27:01;15.50;99.90
9482;DHT22;4779;48.062;11.672;2023-07-22T04:29:28;15.60;99.90
9482;DHT22;4779;48.062;11.672;2023-07-22T04:31:57;15.60;99.90
9482;DHT22;4779;48.062;11.672;2023-07-22T04:34:28;15.60;99.90
9482;DHT22;4779;48.062;11.672;2023-07-22T04:36:55;15.60;99.90
9482;DHT22;4779;48.062;11.672;2023-07-22T04:39:23;15.70;99.90
9482;DHT22;4779;48.062;11.672;2023-07-22T04:41:50;15.80;99.90
9482;DHT22;4779;48.062;11.672;2023-07-22T04:44:18;15.80;99.90
9482;DHT22;4779;48.062;11.672;2023-07-22T04:46:45;15.90;99.90
9482;DHT22;4779;48.062;11.672;2023-07-22T04:49:13;15.90;99.90
9482;DHT22;4779;48.062;11.672;2023-07-22T04:51:44;16.00;99.90
9482;DHT22;4779;48.062;11.672;2023-07-22T04:54:12;16.10;99.90
9482;DHT22;4779;48.062;11.672;2023-07-22T04:56:39;16.10;99.90
9482;DHT22;4779;48.062;11.672;2023-07-22T04:59:06;16.10;99.90
9482;DHT22;4779;48.062;11.672;2023-07-22T05:01:34;16.20;99.90
9482;DHT22;4779;48.062;11.672;2023-07-22T05:04:01;16.10;99.90
9482;DHT22;4779;48.062;11.672;2023-07-22T05:06:28;16.10;99.90
9482;DHT22;4779;48.062;11.672;2023-07-22T05:08:57;16.20;99.90
9482;DHT22;4779;48.062;11.672;2023-07-22T05:11:24;16.10;99.90
9482;DHT22;4779;48.062;11.672;2023-07-22T05:13:51;16.10;99.90
9482;DHT22;4779;48.062;11.672;2023-07-22T05:16:18;16.10;99.90
9482;DHT22;4779;48.062;11.672;2023-07-22T05:18:46;16.10;99.90
9482;DHT22;4779;48.062;11.672;2023-07-22T05:21:13;16.30;99.90
9482;DHT22;4779;48.062;11.672;2023-07-22T05:23:41;16.40;99.90
9482;DHT22;4779;48.062;11.672;2023-07-22T05:26:09;16.50;99.90
9482;DHT22;4779;48.062;11.672;2023-07-22T05:28:36;16.50;99.90
9482;DHT22;4779;48.062;11.672;2023-07-22T05:31:06;16.50;99.90
9482;DHT22;4779;48.062;11.672;2023-07-22T05:33:34;16.50;99.90
9482;DHT22;4779;48.062;11.672;2023-07-22T05:36:01;16.60;99.90
9482;DHT22;4779;48.062;11.672;2023-07-22T05:38:28;16.80;99.90
9482;DHT22;4779;48.062;11.672;2023-07-22T05:40:57;16.80;99.90
9482;DHT22;4779;48.062;11.672;2023-07-22T05:43:25;16.80;99.90
9482;DHT22;4779;48.062;11.672;2023-07-22T05:45:52;16.70;99.90
9482;DHT22;4779;48.062;11.672;2023-07-22T05:48:23;16.60;99.90
9482;DHT22;4779;48.062;11.672;2023-07-22T05:50:55;16.70;99.90
9482;DHT22;4779;48.062;11.672;2023-07-22T05:53:29;16.60;99.90
9482;DHT22;4779;48.062;11.672;2023-07-22T05:55:56;16.80;99.90
9482;DHT22;4779;48.062;11.672;2023-07-22T05:58:25;16.90;99.90
9482;DHT22;4779;48.062;11.672;2023-07-22T06:00:53;17.00;99.90
9482;DHT22;4779;48.062;11.672;2023-07-22T06:03:21;17.20;99.90
9482;DHT22;4779;48.062;11.672;2023-07-22T06:05:48;17.30;99.90
9482;DHT22;4779;48.062;11.672;2023-07-22T06:08:15;17.40;99.90
9482;DHT22;4779;48.062;11.672;2023-07-22T06:10:42;17.50;99.90
9482;DHT22;4779;48.062;11.672;2023-07-22T06:13:09;17.50;99.90
9482;DHT22;4779;48.062;11.672;2023-07-22T06:15:37;17.60;99.90
9482;DHT22;4779;48.062;11.672;2023-07-22T06:20:32;17.60;99.90
9482;DHT22;4779;48.062;11.672;2023-07-22T06:23:00;17.70;99.90
9482;DHT22;4779;48.062;11.672;2023-07-22T06:25:27;17.80;99.90
9482;DHT22;4779;48.062;11.672;2023-07-22T06:27:54;18.00;99.90
9482;DHT22;4779;48.062;11.672;2023-07-22T06:30:21;17.90;99.90
9482;DHT22;4779;48.062;11.672;2023-07-22T06:32:49;17.80;99.90
9482;DHT22;4779;48.062;11.672;2023-07-22T06:35:16;17.80;99.90
9482;DHT22;4779;48.062;11.672;2023-07-22T06:37:43;17.90;99.90
9482;DHT22;4779;48.062;11.672;2023-07-22T06:40:11;18.10;99.90
9482;DHT22;4779;48.062;11.672;2023-07-22T06:42:38;18.30;99.90
9482;DHT22;4779;48.062;11.672;2023-07-22T06:45:06;18.40;99.90
9482;DHT22;4779;48.062;11.672;2023-07-22T06:47:33;18.80;99.90
9482;DHT22;4779;48.062;11.672;2023-07-22T06:50:03;18.90;99.90
9482;DHT22;4779;48.062;11.672;2023-07-22T06:52:31;18.90;99.90
9482;DHT22;4779;48.062;11.672;2023-07-22T06:54:58;18.80;99.90
9482;DHT22;4779;48.062;11.672;2023-07-22T06:57:25;18.90;99.90
9482;DHT22;4779;48.062;11.672;2023-07-22T06:59:53;19.00;99.90
9482;DHT22;4779;48.062;11.672;2023-07-22T07:02:21;18.90;99.90
9482;DHT22;4779;48.062;11.672;2023-07-22T07:04:48;19.00;99.90
9482;DHT22;4779;48.062;11.672;2023-07-22T07:07:17;19.10;99.90
9482;DHT22;4779;48.062;11.672;2023-07-22T07:09:44;19.30;99.90
9482;DHT22;4779;48.062;11.672;2023-07-22T07:12:11;19.30;99.90
9482;DHT22;4779;48.062;11.672;2023-07-22T07:14:38;19.30;99.90
9482;DHT22;4779;48.062;11.672;2023-07-22T07:17:05;19.10;99.90
9482;DHT22;4779;48.062;11.672;2023-07-22T07:19:33;19.20;99.90
9482;DHT22;4779;48.062;11.672;2023-07-22T07:22:00;19.30;99.90
9482;DHT22;4779;48.062;11.672;2023-07-22T07:24:28;19.40;99.90
9482;DHT22;4779;48.062;11.672;2023-07-22T07:26:55;19.50;99.90
9482;DHT22;4779;48.062;11.672;2023-07-22T07:29:22;19.60;99.90
9482;DHT22;4779;48.062;11.672;2023-07-22T07:31:49;19.30;99.90
9482;DHT22;4779;48.062;11.672;2023-07-22T07:34:16;19.00;99.90
9482;DHT22;4779;48.062;11.672;2023-07-22T07:36:43;19.00;99.90
9482;DHT22;4779;48.062;11.672;2023-07-22T07:39:11;19.20;99.90
9482;DHT22;4779;48.062;11.672;2023-07-22T07:41:41;19.20;99.90
9482;DHT22;4779;48.062;11.672;2023-07-22T07:44:08;19.30;99.90
9482;DHT22;4779;48.062;11.672;2023-07-22T07:46:35;19.30;99.90
9482;DHT22;4779;48.062;11.672;2023-07-22T07:49:02;19.40;99.90
9482;DHT22;4779;48.062;11.672;2023-07-22T07:51:31;19.60;99.90
9482;DHT22;4779;48.062;11.672;2023-07-22T07:53:59;19.80;99.90
9482;DHT22;4779;48.062;11.672;2023-07-22T07:56:27;20.00;99.90
9482;DHT22;4779;48.062;11.672;2023-07-22T07:58:56;20.00;99.90
9482;DHT22;4779;48.062;11.672;2023-07-22T08:01:23;20.10;99.90
9482;DHT22;4779;48.062;11.672;2023-07-22T08:03:50;20.30;99.90
9482;DHT22;4779;48.062;11.672;2023-07-22T08:06:17;20.40;99.90
9482;DHT22;4779;48.062;11.672;2023-07-22T08:08:45;20.40;99.90
9482;DHT22;4779;48.062;11.672;2023-07-22T08:11:13;20.40;99.90
9482;DHT22;4779;48.062;11.672;2023-07-22T08:13:42;20.50;99.90
9482;DHT22;4779;48.062;11.672;2023-07-22T08:16:12;20.60;99.90
9482;DHT22;4779;48.062;11.672;2023-07-22T08:18:39;20.60;98.80
9482;DHT22;4779;48.062;11.672;2023-07-22T08:21:07;20.70;99.90
9482;DHT22;4779;48.062;11.672;2023-07-22T08:23:34;20.70;98.50
9482;DHT22;4779;48.062;11.672;2023-07-22T08:26:02;20.80;99.00
9482;DHT22;4779;48.062;11.672;2023-07-22T08:28:31;20.90;97.00
9482;DHT22;4779;48.062;11.672;2023-07-22T08:30:58;20.90;97.60
9482;DHT22;4779;48.062;11.672;2023-07-22T08:33:27;21.10;96.60
9482;DHT22;4779;48.062;11.672;2023-07-22T08:35:54;21.20;95.70
9482;DHT22;4779;48.062;11.672;2023-07-22T08:38:21;21.00;96.40
9482;DHT22;4779;48.062;11.672;2023-07-22T08:40:49;21.10;96.10
9482;DHT22;4779;48.062;11.672;2023-07-22T08:43:20;21.30;97.10
9482;DHT22;4779;48.062;11.672;2023-07-22T08:45:49;21.30;95.80
9482;DHT22;4779;48.062;11.672;2023-07-22T08:48:18;21.30;96.50
9482;DHT22;4779;48.062;11.672;2023-07-22T08:50:50;21.10;94.60
9482;DHT22;4779;48.062;11.672;2023-07-22T08:53:18;20.90;96.60
9482;DHT22;4779;48.062;11.672;2023-07-22T08:55:46;21.00;94.00
9482;DHT22;4779;48.062;11.672;2023-07-22T08:58:14;21.40;94.40
9482;DHT22;4779;48.062;11.672;2023-07-22T09:00:42;21.70;93.70
9482;DHT22;4779;48.062;11.672;2023-07-22T09:03:10;21.80;94.00
9482;DHT22;4779;48.062;11.672;2023-07-22T09:05:37;22.00;92.40
9482;DHT22;4779;48.062;11.672;2023-07-22T09:08:07;22.30;92.50
9482;DHT22;4779;48.062;11.672;2023-07-22T09:10:34;22.40;93.30
9482;DHT22;4779;48.062;11.672;2023-07-22T09:13:02;22.50;92.50
9482;DHT22;4779;48.062;11.672;2023-07-22T09:15:34;22.70;95.90
9482;DHT22;4779;48.062;11.672;2023-07-22T09:18:01;22.70;92.40
9482;DHT22;4779;48.062;11.672;2023-07-22T09:20:28;22.50;91.20
9482;DHT22;4779;48.062;11.672;2023-07-22T09:22:56;22.50;92.90
9482;DHT22;4779;48.062;11.672;2023-07-22T09:25:26;22.80;92.30
9482;DHT22;4779;48.062;11.672;2023-07-22T09:27:55;22.70;91.40
9482;DHT22;4779;48.062;11.672;2023-07-22T09:30:24;23.10;90.40
9482;DHT22;4779;48.062;11.672;2023-07-22T09:32:52;23.60;90.00
9482;DHT22;4779;48.062;11.672;2023-07-22T09:35:20;23.90;91.40
9482;DHT22;4779;48.062;11.672;2023-07-22T09:37:47;23.70;82.70
9482;DHT22;4779;48.062;11.672;2023-07-22T09:40:15;23.30;88.40
9482;DHT22;4779;48.062;11.672;2023-07-22T09:42:46;23.70;87.20
9482;DHT22;4779;48.062;11.672;2023-07-22T09:45:13;24.10;91.80
9482;DHT22;4779;48.062;11.672;2023-07-22T09:47:41;24.20;80.60
9482;DHT22;4779;48.062;11.672;2023-07-22T09:50:11;24.30;85.20
9482;DHT22;4779;48.062;11.672;2023-07-22T09:52:43;24.50;87.20
9482;DHT22;4779;48.062;11.672;2023-07-22T09:55:11;24.40;84.10
9482;DHT22;4779;48.062;11.672;2023-07-22T09:57:40;24.60;89.70
9482;DHT22;4779;48.062;11.672;2023-07-22T10:00:12;24.80;86.80
9482;DHT22;4779;48.062;11.672;2023-07-22T10:02:41;24.90;78.30
9482;DHT22;4779;48.062;11.672;2023-07-22T10:05:12;24.70;78.60
9482;DHT22;4779;48.062;11.672;2023-07-22T10:07:43;24.60;83.30
9482;DHT22;4779;48.062;11.672;2023-07-22T10:10:12;24.70;81.80
9482;DHT22;4779;48.062;11.672;2023-07-22T10:12:40;25.10;81.80
9482;DHT22;4779;48.062;11.672;2023-07-22T10:15:10;25.50;85.20
9482;DHT22;4779;48.062;11.672;2023-07-22T10:17:38;25.50;80.00
9482;DHT22;4779;48.062;11.672;2023-07-22T10:20:06;25.60;79.40
9482;DHT22;4779;48.062;11.672;2023-07-22T10:22:36;25.40;79.00
9482;DHT22;4779;48.062;11.672;2023-07-22T10:25:07;25.20;80.00
9482;DHT22;4779;48.062;11.672;2023-07-22T10:27:35;25.70;82.20
9482;DHT22;4779;48.062;11.672;2023-07-22T10:30:06;25.90;76.90
9482;DHT22;4779;48.062;11.672;2023-07-22T10:32:36;26.20;75.80
9482;DHT22;4779;48.062;11.672;2023-07-22T10:35:04;26.60;83.40
9482;DHT22;4779;48.062;11.672;2023-07-22T10:37:36;26.70;72.40
9482;DHT22;4779;48.062;11.672;2023-07-22T10:40:17;26.90;72.10
9482;DHT22;4779;48.062;11.672;2023-07-22T10:42:52;26.70;74.40
9482;DHT22;4779;48.062;11.672;2023-07-22T10:45:27;26.20;67.40
9482;DHT22;4779;48.062;11.672;2023-07-22T10:48:04;26.10;72.50
9482;DHT22;4779;48.062;11.672;2023-07-22T10:50:40;26.60;73.30
9482;DHT22;4779;48.062;11.672;2023-07-22T10:53:09;26.70;73.20
9482;DHT22;4779;48.062;11.672;2023-07-22T10:56:04;27.20;76.90
9482;DHT22;4779;48.062;11.672;2023-07-22T10:58:32;27.40;74.30
9482;DHT22;4779;48.062;11.672;2023-07-22T11:01:21;27.10;65.50
9482;DHT22;4779;48.062;11.672;2023-07-22T11:04:10;26.60;69.00
9482;DHT22;4779;48.062;11.672;2023-07-22T11:06:39;26.90;70.50
9482;DHT22;4779;48.062;11.672;2023-07-22T11:09:37;27.10;70.80
9482;DHT22;4779;48.062;11.672;2023-07-22T11:12:06;27.40;66.50
9482;DHT22;4779;48.062;11.672;2023-07-22T11:14:35;27.30;66.30
9482;DHT22;4779;48.062;11.672;2023-07-22T11:17:05;27.40;71.40
9482;DHT22;4779;48.062;11.672;2023-07-22T11:19:35;27.80;70.70
9482;DHT22;4779;48.062;11.672;2023-07-22T11:22:02;28.20;67.20
9482;DHT22;4779;48.062;11.672;2023-07-22T11:24:29;28.40;70.10
9482;DHT22;4779;48.062;11.672;2023-07-22T11:26:58;28.70;77.70
9482;DHT22;4779;48.062;11.672;2023-07-22T11:29:25;28.90;74.20
9482;DHT22;4779;48.062;11.672;2023-07-22T11:31:52;28.90;76.90
9482;DHT22;4779;48.062;11.672;2023-07-22T11:34:21;29.10;75.70
9482;DHT22;4779;48.062;11.672;2023-07-22T11:36:51;28.60;68.50
9482;DHT22;4779;48.062;11.672;2023-07-22T11:39:20;28.70;74.40
9482;DHT22;4779;48.062;11.672;2023-07-22T11:41:48;28.70;72.40
9482;DHT22;4779;48.062;11.672;2023-07-22T11:44:19;28.90;74.00
9482;DHT22;4779;48.062;11.672;2023-07-22T11:46:47;29.00;70.10
9482;DHT22;4779;48.062;11.672;2023-07-22T11:49:26;29.00;70.20
9482;DHT22;4779;48.062;11.672;2023-07-22T11:51:59;28.70;67.40
9482;DHT22;4779;48.062;11.672;2023-07-22T11:54:27;28.10;69.50
9482;DHT22;4779;48.062;11.672;2023-07-22T11:56:55;27.50;71.90
9482;DHT22;4779;48.062;11.672;2023-07-22T11:59:36;26.90;73.90
9482;DHT22;4779;48.062;11.672;2023-07-22T12:02:03;26.70;71.30
9482;DHT22;4779;48.062;11.672;2023-07-22T12:04:32;26.90;70.10
9482;DHT22;4779;48.062;11.672;2023-07-22T12:07:00;26.60;72.40
9482;DHT22;4779;48.062;11.672;2023-07-22T12:09:29;26.40;76.70
9482;DHT22;4779;48.062;11.672;2023-07-22T12:11:57;26.20;72.70
9482;DHT22;4779;48.062;11.672;2023-07-22T12:14:32;25.80;69.90
9482;DHT22;4779;48.062;11.672;2023-07-22T12:17:00;26.00;72.40
9482;DHT22;4779;48.062;11.672;2023-07-22T12:19:27;25.80;71.80
9482;DHT22;4779;48.062;11.672;2023-07-22T12:21:55;25.50;70.00
9482;DHT22;4779;48.062;11.672;2023-07-22T12:24:23;25.20;71.20
9482;DHT22;4779;48.062;11.672;2023-07-22T12:26:50;25.10;73.80
9482;DHT22;4779;48.062;11.672;2023-07-22T12:29:17;25.30;74.20
9482;DHT22;4779;48.062;11.672;2023-07-22T12:31:45;25.50;74.40
9482;DHT22;4779;48.062;11.672;2023-07-22T12:34:12;25.50;77.40
9482;DHT22;4779;48.062;11.672;2023-07-22T12:36:40;25.60;74.30
9482;DHT22;4779;48.062;11.672;2023-07-22T12:39:10;25.80;74.30
9482;DHT22;4779;48.062;11.672;2023-07-22T12:41:39;26.10;71.30
9482;DHT22;4779;48.062;11.672;2023-07-22T12:44:06;26.40;73.10
9482;DHT22;4779;48.062;11.672;2023-07-22T12:46:33;26.60;72.30
9482;DHT22;4779;48.062;11.672;2023-07-22T12:49:09;26.90;72.80
9482;DHT22;4779;48.062;11.672;2023-07-22T12:51:36;26.70;69.00
9482;DHT22;4779;48.062;11.672;2023-07-22T12:54:03;26.50;72.20
9482;DHT22;4779;48.062;11.672;2023-07-22T12:56:30;26.60;75.60
9482;DHT22;4779;48.062;11.672;2023-07-22T12:58:58;26.70;73.50
9482;DHT22;4779;48.062;11.672;2023-07-22T13:01:25;27.10;73.40
9482;DHT22;4779;48.062;11.672;2023-07-22T13:03:58;27.20;68.20
9482;DHT22;4779;48.062;11.672;2023-07-22T13:06:25;26.70;69.80
9482;DHT22;4779;48.062;11.672;2023-07-22T13:08:52;26.90;70.00
9482;DHT22;4779;48.062;11.672;2023-07-22T13:11:19;26.80;70.50
9482;DHT22;4779;48.062;11.672;2023-07-22T13:13:46;26.30;65.10
9482;DHT22;4779;48.062;11.672;2023-07-22T13:16:15;26.10;68.60
9482;DHT22;4779;48.062;11.672;2023-07-22T13:18:42;26.50;72.50
9482;DHT22;4779;48.062;11.672;2023-07-22T13:21:09;26.70;68.10
9482;DHT22;4779;48.062;11.672;2023-07-22T13:23:36;27.00;71.60
9482;DHT22;4779;48.062;11.672;2023-07-22T13:26:03;27.10;71.20
9482;DHT22;4779;48.062;11.672;2023-07-22T13:28:33;26.60;68.00
9482;DHT22;4779;48.062;11.672;2023-07-22T13:31:00;26.30;68.60
9482;DHT22;4779;48.062;11.672;2023-07-22T13:33:28;26.20;67.40
9482;DHT22;4779;48.062;11.672;2023-07-22T13:35:56;25.90;69.80
9482;DHT22;4779;48.062;11.672;2023-07-22T13:38:23;25.80;73.30
9482;DHT22;4779;48.062;11.672;2023-07-22T13:40:51;26.10;72.60
9482;DHT22;4779;48.062;11.672;2023-07-22T13:43:18;26.10;71.10
9482;DHT22;4779;48.062;11.672;2023-07-22T13:45:45;26.50;67.50
9482;DHT22;4779;48.062;11.672;2023-07-22T13:48:12;26.80;69.70
9482;DHT22;4779;48.062;11.672;2023-07-22T13:50:40;26.70;68.80
9482;DHT22;4779;48.062;11.672;2023-07-22T13:53:08;26.80;72.50
9482;DHT22;4779;48.062;11.672;2023-07-22T13:55:35;27.20;67.60
9482;DHT22;4779;48.062;11.672;2023-07-22T13:58:02;27.00;68.50
9482;DHT22;4779;48.062;11.672;2023-07-22T14:00:29;27.00;72.20
9482;DHT22;4779;48.062;11.672;2023-07-22T14:02:56;26.70;69.10
9482;DHT22;4779;48.062;11.672;2023-07-22T14:05:24;26.60;71.60
9482;DHT22;4779;48.062;11.672;2023-07-22T14:07:53;27.10;72.80
9482;DHT22;4779;48.062;11.672;2023-07-22T14:10:20;27.40;65.20
9482;DHT22;4779;48.062;11.672;2023-07-22T14:12:47;27.80;72.30
9482;DHT22;4779;48.062;11.672;2023-07-22T14:15:20;28.10;68.80
9482;DHT22;4779;48.062;11.672;2023-07-22T14:17:49;27.90;65.50
9482;DHT22;4779;48.062;11.672;2023-07-22T14:20:16;28.00;70.80
9482;DHT22;4779;48.062;11.672;2023-07-22T14:22:45;27.50;65.30
9482;DHT22;4779;48.062;11.672;2023-07-22T14:25:14;27.50;70.30
9482;DHT22;4779;48.062;11.672;2023-07-22T14:27:41;27.70;69.00
9482;DHT22;4779;48.062;11.672;2023-07-22T14:30:08;27.80;68.00
9482;DHT22;4779;48.062;11.672;2023-07-22T14:32:42;27.50;64.90
9482;DHT22;4779;48.062;11.672;2023-07-22T14:35:09;27.40;64.00
9482;DHT22;4779;48.062;11.672;2023-07-22T14:37:36;27.20;60.50
9482;DHT22;4779;48.062;11.672;2023-07-22T14:40:07;26.90;62.20
9482;DHT22;4779;48.062;11.672;2023-07-22T14:42:39;26.90;62.50
9482;DHT22;4779;48.062;11.672;2023-07-22T14:45:10;27.00;64.50
9482;DHT22;4779;48.062;11.672;2023-07-22T14:47:39;26.90;66.10
9482;DHT22;4779;48.062;11.672;2023-07-22T14:50:07;26.60;63.20
9482;DHT22;4779;48.062;11.672;2023-07-22T14:52:34;26.00;63.30
9482;DHT22;4779;48.062;11.672;2023-07-22T14:55:01;25.80;67.30
9482;DHT22;4779;48.062;11.672;2023-07-22T14:57:28;26.10;69.90
9482;DHT22;4779;48.062;11.672;2023-07-22T14:59:58;26.40;68.30
9482;DHT22;4779;48.062;11.672;2023-07-22T15:02:27;26.50;63.90
9482;DHT22;4779;48.062;11.672;2023-07-22T15:04:57;26.60;64.80
9482;DHT22;4779;48.062;11.672;2023-07-22T15:07:25;26.50;66.00
9482;DHT22;4779;48.062;11.672;2023-07-22T15:09:54;26.60;64.90
9482;DHT22;4779;48.062;11.672;2023-07-22T15:12:21;26.50;63.00
9482;DHT22;4779;48.062;11.672;2023-07-22T15:14:48;26.50;68.00
9482;DHT22;4779;48.062;11.672;2023-07-22T15:17:16;26.50;61.10
9482;DHT22;4779;48.062;11.672;2023-07-22T15:19:47;26.50;62.20
9482;DHT22;4779;48.062;11.672;2023-07-22T15:22:14;26.50;61.30
9482;DHT22;4779;48.062;11.672;2023-07-22T15:24:41;26.40;62.40
9482;DHT22;4779;48.062;11.672;2023-07-22T15:27:08;26.40;61.70
9482;DHT22;4779;48.062;11.672;2023-07-22T15:29:35;26.20;64.90
9482;DHT22;4779;48.062;11.672;2023-07-22T15:32:02;26.00;63.60
9482;DHT22;4779;48.062;11.672;2023-07-22T15:34:31;26.10;63.40
9482;DHT22;4779;48.062;11.672;2023-07-22T15:37:02;25.90;60.40
9482;DHT22;4779;48.062;11.672;2023-07-22T15:39:29;25.90;65.00
9482;DHT22;4779;48.062;11.672;2023-07-22T15:41:56;25.80;63.50
9482;DHT22;4779;48.062;11.672;2023-07-22T15:44:23;25.60;61.80
9482;DHT22;4779;48.062;11.672;2023-07-22T15:46:52;25.40;65.40
9482;DHT22;4779;48.062;11.672;2023-07-22T15:49:19;25.30;64.40
9482;DHT22;4779;48.062;11.672;2023-07-22T15:51:48;25.30;63.90
9482;DHT22;4779;48.062;11.672;2023-07-22T15:54:18;25.40;64.50